• Join FlightAware (Why Join?)
  • Login
  • US Flag 
11:50AM EST


 

Airport Tracker/Info


-or-


 

Live Flight TrackerFlight Track Log ✈ N27XP ✈ 26-Nov-2013 ✈ MYNN / NAS - KILM

Flight Track Log - Related Links

Times and Time Zones

All times are in EST time to prevent confusion due to time zone crossing. See the N27XP flight status page for this flight to view local times or setup timezone preferences in your user account.

Time Position Orientation Groundspeed Altitude Reporting Facility
EST Latitude Longitude Course Direction KTS MPH feet Rate Location/Type
09:38AM 25.0969 -77.3981 17° North 451 519 6,300  Level Miami Center
09:39AM 25.1764 -77.4122 351° North 370 426 9,200 2,880 Climbing Miami Center
09:40AM 25.2539 -77.3919 13° North 309 356 12,100 2,760 Climbing Miami Center
09:41AM 25.3250 -77.3644 19° North 278 320 14,800 2,460 Climbing Miami Center
09:42AM 25.3961 -77.3372 19° North 266 306 17,100 2,100 Climbing Miami Center
09:43AM 25.5287 -77.4875 17° North  Level Estimated
09:43AM 25.4692 -77.3214 11° North 266 306 19,100  Level Miami Center
09:44AM 25.5467 -77.2894 20° North 272 313 20,200 1,260 Climbing Miami Center
09:45AM 25.6303 -77.2528 22° Northeast 290 334 21,700 1,620 Climbing Miami Center
09:46AM 25.7058 -77.1978 33° Northeast 312 359 23,500 1,500 Climbing Miami Center
09:47AM 25.7269 -77.0986 77° East 302 348 24,800 1,320 Climbing Miami Center
09:48AM 25.7478 -76.9925 78° East 314 361 26,200 1,260 Climbing Miami Center
09:49AM 25.7708 -76.8889 76° East 326 375 27,400 1,080 Climbing Miami Center
09:50AM 25.8064 -76.7850 69° East 346 398 28,400 900 Climbing Miami Center
09:51AM 25.8942 -76.7339 28° Northeast 327 376 29,200 720 Climbing Miami Center
09:52AM 25.9967 -76.7547 350° North 307 353 29,900 720 Climbing Miami Center
09:53AM 26.0947 -76.7847 345° North 333 383 30,700 780 Climbing Miami Center
09:54AM 26.1950 -76.8264 340° North 351 404 31,500 660 Climbing Miami Center
09:55AM 26.2953 -76.8656 341° North 368 423 32,100 540 Climbing Miami Center
09:56AM 26.3978 -76.9075 340° North 376 433 32,600 480 Climbing Miami Center
09:57AM 26.5044 -76.9353 347° North 382 440 33,100 420 Climbing Miami Center
09:58AM 26.6150 -76.9633 347° North 395 455 33,500 420 Climbing Miami Center
09:59AM 26.7278 -76.9842 351° North 400 460 34,000 480 Climbing Miami Center
10:00AM 26.8364 -77.0147 346° North 400 460 34,500 480 Climbing Miami Center
10:01AM 26.9492 -77.0428 347° North 400 460 35,000 240 Climbing Miami Center
10:02AM 27.0642 -77.0781 345° North 413 475 35,000  Level Miami Center
10:03AM 27.1811 -77.1061 348° North 420 483 35,000  Level Miami Center
10:04AM 27.2978 -77.1414 345° North 420 483 35,000  Level Miami Center
10:05AM 27.4128 -77.1606 352° North 420 483 35,000  Level Miami Center
10:06AM 27.5297 -77.1539 North 420 483 35,000  Level Miami Center
10:07AM 27.6508 -77.1706 353° North 426 490 35,000  Level Miami Center
10:08AM 27.7739 -77.1942 350° North 432 497 35,000  Level Miami Center
10:09AM 27.9075 -77.2086 355° North 432 497 35,000  Level Miami Center
10:10AM 28.0244 -77.2208 355° North 432 497 35,000  Level Miami Center
10:11AM 28.1519 -77.2353 354° North 434 499 35,000  Level Miami Center
10:12AM 28.2728 -77.2475 355° North 434 499 35,000  Level Miami Center
10:13AM 28.3878 -77.2575 356° North 426 490 35,000  Level Miami Center
10:14AM 28.5086 -77.2719 354° North 432 497 35,000  Level Miami Center
10:15AM 28.6150 -77.2819 355° North 420 483 35,000  Level Miami Center
10:16AM 28.7217 -77.2942 354° North 425 489 35,000  Level Miami Center
10:17AM 28.8717 -77.3114 354° North 425 489 35,000  Level Miami Center
10:18AM 28.9906 -77.3236 355° North 422 486 35,000 -60 Level Miami Center
10:19AM 29.0969 -77.3311 356° North 432 497 34,900  Descending Miami Center
10:20AM 29.2139 -77.3436 355° North 432 497 35,000  Climbing Miami Center
10:22AM 29.4581 -77.3672 355° North 392 451 35,000  Level Jacksonville Center
10:23AM 29.5733 -77.3772 356° North 414 476 35,000  Level Jacksonville Center
10:24AM 29.6908 -77.3922 354° North 421 484 35,000  Level Jacksonville Center
10:25AM 29.8144 -77.4067 354° North 436 502 35,000  Level Jacksonville Center
10:26AM 29.9361 -77.4214 354° North 395 455 35,000  Level Jacksonville Center
10:27AM 30.0558 -77.4361 354° North 443 510 35,000  Level Jacksonville Center
10:28AM 30.1689 -77.4442 356° North 427 491 35,000  Level Jacksonville Center
10:29AM 30.2883 -77.4592 354° North 427 491 35,000  Level Jacksonville Center
10:30AM 30.4078 -77.4667 357° North 427 491 35,000  Level Jacksonville Center
10:31AM 30.5292 -77.4742 357° North 427 491 35,000  Level Jacksonville Center
10:32AM 30.6489 -77.4964 351° North 427 491 35,000  Level Jacksonville Center
10:33AM 30.7681 -77.4994 359° North 427 491 35,000  Level Jacksonville Center
10:34AM 30.8878 -77.5142 354° North 427 491 35,000  Level Jacksonville Center
10:35AM 31.0094 -77.5292 354° North 427 491 35,000  Level Jacksonville Center
10:36AM 31.1289 -77.5442 354° North 427 491 35,000  Level Jacksonville Center
10:37AM 31.2506 -77.5542 356° North 427 491 35,000  Level Jacksonville Center
10:38AM 31.3703 -77.5717 353° North 427 491 35,000  Level Jacksonville Center
10:39AM 31.4917 -77.5819 356° North 427 491 35,000  Level Jacksonville Center
10:40AM 31.6111 -77.5944 355° North 427 491 35,000  Level Jacksonville Center
10:41AM 31.7328 -77.6094 354° North 427 491 35,000  Level Jacksonville Center
10:42AM 31.8547 -77.6269 353° North 427 491 35,000 -60 Level Jacksonville Center
10:43AM 31.9761 -77.6372 356° North 427 491 34,900  Descending Jacksonville Center
10:44AM 32.0958 -77.6550 353° North 432 497 35,000  Climbing Jacksonville Center
10:45AM 32.2172 -77.6650 356° North 432 497 35,000  Level Jacksonville Center
10:46AM 32.3347 -77.6781 355° North 427 491 35,000  Level Jacksonville Center
10:47AM 32.4542 -77.6933 354° North 427 491 35,000 -600 Level Jacksonville Center
10:48AM 32.5758 -77.7086 354° North 432 497 33,800 -1,800 Descending Jacksonville Center
10:49AM 32.6997 -77.7211 355° North 432 497 31,500 -2,400 Descending Jacksonville Center
10:50AM 32.8256 -77.7361 354° North 443 510 29,000 -2,520 Descending Jacksonville Center
10:51AM 32.9511 -77.7489 355° North 448 516 26,500 -2,640 Descending Jacksonville Center
10:52AM 33.0750 -77.7664 353° North 448 516 23,800 -2,760 Descending Jacksonville Center
10:53AM 33.2028 -77.7789 355° North 448 516 21,000 -2,700 Descending Jacksonville Center
10:54AM 33.3244 -77.7944 354° North 448 516 18,400 -2,700 Descending Jacksonville Center
10:55AM 33.4461 -77.8072 355° North 443 510 15,700 -2,640 Descending Jacksonville Center
10:56AM 33.5592 -77.8208 354° North 431 496 13,200 -1,380 Descending Jacksonville Center
10:58AM 33.8147 -77.8514 354° North 368 423 11,000 -960 Descending Washington Center
10:59AM 33.9103 -77.8614 355° North 357 411 9,900 -1,440 Descending Washington Center
11:00AM 34.0081 -77.8767 353° North 347 399 8,200 -1,800 Descending Washington Center
11:01AM 34.0847 -77.9064 342° North 336 387 6,400 -1,680 Descending Washington Center
11:02AM 34.1614 -77.9361 342° North 312 359 4,900 -1,200 Descending Washington Center
11:03AM 34.2381 -77.9683 341° North 298 343 4,000 -720 Descending Washington Center
11:04AM 34.3064 -77.9956 342° North 275 316 3,500 -540 Descending Washington Center
11:05AM 34.3703 -78.0225 341° North 258 297 3,000 -420 Descending Washington Center
11:06AM 34.4128 -77.9936 29° Northeast 205 236 2,700 -480 Descending Washington Center
11:07AM 34.3967 -77.9603 120° Southeast 108 124 2,100 -660 Descending Washington Center